sensor_id;sensor_type;location;lat;lon;timestamp;pressure;altitude;pressure_sealevel;temperature;humidity
81997;BME280;71500;50.806;8.774;2023-10-09T00:01:54;100231.68;;;12.00;75.40
81997;BME280;71500;50.806;8.774;2023-10-09T00:04:25;100230.34;;;11.96;75.41
81997;BME280;71500;50.806;8.774;2023-10-09T00:06:57;100221.11;;;11.92;75.57
81997;BME280;71500;50.806;8.774;2023-10-09T00:09:30;100216.91;;;11.90;75.56
81997;BME280;71500;50.806;8.774;2023-10-09T00:12:01;100219.58;;;11.85;75.66
81997;BME280;71500;50.806;8.774;2023-10-09T00:14:40;100220.58;;;11.80;75.76
81997;BME280;71500;50.806;8.774;2023-10-09T00:17:11;100218.82;;;11.76;75.91
81997;BME280;71500;50.806;8.774;2023-10-09T00:19:52;100215.14;;;11.77;75.97
81997;BME280;71500;50.806;8.774;2023-10-09T00:22:30;100210.07;;;11.79;76.06
81997;BME280;71500;50.806;8.774;2023-10-09T00:25:09;100206.21;;;11.80;76.14
81997;BME280;71500;50.806;8.774;2023-10-09T00:27:43;100209.02;;;11.80;76.03
81997;BME280;71500;50.806;8.774;2023-10-09T00:30:17;100208.23;;;11.81;76.05
81997;BME280;71500;50.806;8.774;2023-10-09T00:32:50;100205.18;;;11.81;76.11
81997;BME280;71500;50.806;8.774;2023-10-09T00:35:30;100197.50;;;11.80;76.13
81997;BME280;71500;50.806;8.774;2023-10-09T00:38:09;100191.77;;;11.78;76.09
81997;BME280;71500;50.806;8.774;2023-10-09T00:40:54;100199.28;;;11.74;76.06
81997;BME280;71500;50.806;8.774;2023-10-09T00:43:40;100203.73;;;11.70;76.29
81997;BME280;71500;50.806;8.774;2023-10-09T00:46:13;100205.98;;;11.68;76.32
81997;BME280;71500;50.806;8.774;2023-10-09T00:48:56;100202.30;;;11.66;76.46
81997;BME280;71500;50.806;8.774;2023-10-09T00:51:34;100198.60;;;11.65;76.34
81997;BME280;71500;50.806;8.774;2023-10-09T00:54:08;100198.36;;;11.68;76.35
81997;BME280;71500;50.806;8.774;2023-10-09T00:56:45;100192.71;;;11.68;76.32
81997;BME280;71500;50.806;8.774;2023-10-09T00:59:28;100184.51;;;11.68;76.39
81997;BME280;71500;50.806;8.774;2023-10-09T01:02:00;100183.23;;;11.68;76.30
81997;BME280;71500;50.806;8.774;2023-10-09T01:04:35;100178.34;;;11.67;76.37
81997;BME280;71500;50.806;8.774;2023-10-09T01:07:14;100170.48;;;11.61;76.23
81997;BME280;71500;50.806;8.774;2023-10-09T01:09:50;100173.85;;;11.63;76.33
81997;BME280;71500;50.806;8.774;2023-10-09T01:12:25;100168.41;;;11.60;76.39
81997;BME280;71500;50.806;8.774;2023-10-09T01:14:59;100171.56;;;11.59;76.40
81997;BME280;71500;50.806;8.774;2023-10-09T01:17:30;100174.52;;;11.57;76.50
81997;BME280;71500;50.806;8.774;2023-10-09T01:20:09;100168.56;;;11.57;76.52
81997;BME280;71500;50.806;8.774;2023-10-09T01:26:18;100163.11;;;11.60;76.48
81997;BME280;71500;50.806;8.774;2023-10-09T01:28:50;100171.75;;;11.61;76.51
81997;BME280;71500;50.806;8.774;2023-10-09T01:31:28;100162.23;;;11.62;76.32
81997;BME280;71500;50.806;8.774;2023-10-09T01:34:08;100161.05;;;11.63;76.29
81997;BME280;71500;50.806;8.774;2023-10-09T01:36:40;100153.59;;;11.61;76.29
81997;BME280;71500;50.806;8.774;2023-10-09T01:39:12;100145.82;;;11.58;76.33
81997;BME280;71500;50.806;8.774;2023-10-09T01:41:54;100143.70;;;11.56;76.33
81997;BME280;71500;50.806;8.774;2023-10-09T01:44:30;100139.88;;;11.55;76.52
81997;BME280;71500;50.806;8.774;2023-10-09T01:47:06;100135.33;;;11.56;76.55
81997;BME280;71500;50.806;8.774;2023-10-09T01:49:38;100138.11;;;11.57;76.76
81997;BME280;71500;50.806;8.774;2023-10-09T01:52:12;100138.73;;;11.60;76.89
81997;BME280;71500;50.806;8.774;2023-10-09T01:54:47;100134.67;;;11.62;76.88
81997;BME280;71500;50.806;8.774;2023-10-09T01:57:21;100138.16;;;11.63;76.96
81997;BME280;71500;50.806;8.774;2023-10-09T01:59:54;100132.52;;;11.64;77.07
81997;BME280;71500;50.806;8.774;2023-10-09T02:02:28;100125.15;;;11.65;77.12
81997;BME280;71500;50.806;8.774;2023-10-09T02:05:05;100123.05;;;11.67;77.12
81997;BME280;71500;50.806;8.774;2023-10-09T02:07:40;100115.80;;;11.68;77.10
81997;BME280;71500;50.806;8.774;2023-10-09T02:10:15;100115.91;;;11.67;77.12
81997;BME280;71500;50.806;8.774;2023-10-09T02:13:04;100127.10;;;11.67;77.24
81997;BME280;71500;50.806;8.774;2023-10-09T02:15:39;100126.59;;;11.67;77.32
81997;BME280;71500;50.806;8.774;2023-10-09T02:18:23;100123.70;;;11.68;77.40
81997;BME280;71500;50.806;8.774;2023-10-09T02:21:10;100128.99;;;11.70;77.37
81997;BME280;71500;50.806;8.774;2023-10-09T02:23:44;100127.50;;;11.70;77.30
81997;BME280;71500;50.806;8.774;2023-10-09T02:26:20;100123.33;;;11.72;77.39
81997;BME280;71500;50.806;8.774;2023-10-09T02:28:57;100112.52;;;11.73;77.47
81997;BME280;71500;50.806;8.774;2023-10-09T02:31:30;100103.65;;;11.73;77.40
81997;BME280;71500;50.806;8.774;2023-10-09T02:34:11;100097.59;;;11.73;77.47
81997;BME280;71500;50.806;8.774;2023-10-09T02:36:47;100097.03;;;11.71;77.58
81997;BME280;71500;50.806;8.774;2023-10-09T02:39:20;100100.60;;;11.73;77.45
81997;BME280;71500;50.806;8.774;2023-10-09T02:41:55;100087.06;;;11.71;77.54
81997;BME280;71500;50.806;8.774;2023-10-09T02:44:31;100084.45;;;11.71;77.49
81997;BME280;71500;50.806;8.774;2023-10-09T02:47:09;100083.33;;;11.70;77.58
81997;BME280;71500;50.806;8.774;2023-10-09T02:49:42;100083.90;;;11.71;77.54
81997;BME280;71500;50.806;8.774;2023-10-09T02:52:13;100082.10;;;11.71;77.52
81997;BME280;71500;50.806;8.774;2023-10-09T02:54:49;100084.63;;;11.73;77.60
81997;BME280;71500;50.806;8.774;2023-10-09T02:57:30;100085.22;;;11.74;77.61
81997;BME280;71500;50.806;8.774;2023-10-09T03:00:08;100093.85;;;11.75;77.69
81997;BME280;71500;50.806;8.774;2023-10-09T03:02:49;100090.26;;;11.75;77.71
81997;BME280;71500;50.806;8.774;2023-10-09T03:05:21;100089.73;;;11.76;77.72
81997;BME280;71500;50.806;8.774;2023-10-09T03:07:54;100081.70;;;11.74;77.56
81997;BME280;71500;50.806;8.774;2023-10-09T03:10:26;100090.02;;;11.74;77.56
81997;BME280;71500;50.806;8.774;2023-10-09T03:12:58;100090.55;;;11.74;77.70
81997;BME280;71500;50.806;8.774;2023-10-09T03:15:32;100094.06;;;11.73;77.58
81997;BME280;71500;50.806;8.774;2023-10-09T03:18:06;100094.29;;;11.72;77.56
81997;BME280;71500;50.806;8.774;2023-10-09T03:20:38;100091.32;;;11.76;77.59
81997;BME280;71500;50.806;8.774;2023-10-09T03:23:10;100095.35;;;11.78;77.63
81997;BME280;71500;50.806;8.774;2023-10-09T03:25:44;100090.86;;;11.81;77.45
81997;BME280;71500;50.806;8.774;2023-10-09T03:28:15;100084.33;;;11.82;77.48
81997;BME280;71500;50.806;8.774;2023-10-09T03:30:47;100089.45;;;11.84;77.36
81997;BME280;71500;50.806;8.774;2023-10-09T03:33:19;100084.55;;;11.85;77.34
81997;BME280;71500;50.806;8.774;2023-10-09T03:35:51;100080.71;;;11.85;77.35
81997;BME280;71500;50.806;8.774;2023-10-09T03:38:22;100071.80;;;11.83;77.36
81997;BME280;71500;50.806;8.774;2023-10-09T03:40:54;100074.48;;;11.81;77.50
81997;BME280;71500;50.806;8.774;2023-10-09T03:43:26;100070.45;;;11.80;77.28
81997;BME280;71500;50.806;8.774;2023-10-09T03:46:02;100070.86;;;11.81;77.40
81997;BME280;71500;50.806;8.774;2023-10-09T03:48:35;100069.05;;;11.86;77.15
81997;BME280;71500;50.806;8.774;2023-10-09T03:51:07;100065.33;;;11.90;77.23
81997;BME280;71500;50.806;8.774;2023-10-09T03:53:41;100057.41;;;11.92;77.08
81997;BME280;71500;50.806;8.774;2023-10-09T03:56:13;100059.70;;;11.94;77.11
81997;BME280;71500;50.806;8.774;2023-10-09T03:58:48;100065.23;;;11.96;77.14
81997;BME280;71500;50.806;8.774;2023-10-09T04:01:21;100060.00;;;11.99;77.03
81997;BME280;71500;50.806;8.774;2023-10-09T04:03:59;100064.64;;;11.99;77.00
81997;BME280;71500;50.806;8.774;2023-10-09T04:06:32;100064.06;;;11.99;76.99
81997;BME280;71500;50.806;8.774;2023-10-09T04:09:06;100061.94;;;11.97;77.09
81997;BME280;71500;50.806;8.774;2023-10-09T04:11:58;100053.11;;;11.93;76.97
81997;BME280;71500;50.806;8.774;2023-10-09T04:14:43;100057.30;;;11.92;77.12
81997;BME280;71500;50.806;8.774;2023-10-09T04:17:20;100055.48;;;11.90;77.19
81997;BME280;71500;50.806;8.774;2023-10-09T04:20:07;100050.80;;;11.91;77.01
81997;BME280;71500;50.806;8.774;2023-10-09T04:22:52;100055.39;;;11.91;76.94
81997;BME280;71500;50.806;8.774;2023-10-09T04:25:30;100060.89;;;11.97;77.07
81997;BME280;71500;50.806;8.774;2023-10-09T04:28:12;100060.11;;;11.94;76.96
81997;BME280;71500;50.806;8.774;2023-10-09T04:30:50;100061.90;;;11.92;77.05
81997;BME280;71500;50.806;8.774;2023-10-09T04:33:26;100062.41;;;11.92;77.24
81997;BME280;71500;50.806;8.774;2023-10-09T04:36:11;100061.75;;;11.93;77.31
81997;BME280;71500;50.806;8.774;2023-10-09T04:38:54;100054.84;;;11.93;77.23
81997;BME280;71500;50.806;8.774;2023-10-09T04:41:43;100053.95;;;11.95;77.40
81997;BME280;71500;50.806;8.774;2023-10-09T04:44:31;100051.86;;;11.97;77.43
81997;BME280;71500;50.806;8.774;2023-10-09T04:47:08;100058.00;;;12.01;77.49
81997;BME280;71500;50.806;8.774;2023-10-09T04:49:49;100042.13;;;12.04;77.44
81997;BME280;71500;50.806;8.774;2023-10-09T04:52:32;100044.51;;;12.07;77.33
81997;BME280;71500;50.806;8.774;2023-10-09T04:55:18;100048.95;;;12.09;77.45
81997;BME280;71500;50.806;8.774;2023-10-09T04:57:54;100041.72;;;12.10;77.50
81997;BME280;71500;50.806;8.774;2023-10-09T05:00:33;100034.31;;;12.11;77.51
81997;BME280;71500;50.806;8.774;2023-10-09T05:03:19;100028.91;;;12.12;77.51
81997;BME280;71500;50.806;8.774;2023-10-09T05:05:59;100019.36;;;12.11;77.42
81997;BME280;71500;50.806;8.774;2023-10-09T05:08:50;100020.48;;;12.11;77.40
81997;BME280;71500;50.806;8.774;2023-10-09T05:11:25;100018.79;;;12.10;77.38
81997;BME280;71500;50.806;8.774;2023-10-09T05:14:23;100022.73;;;12.08;77.32
81997;BME280;71500;50.806;8.774;2023-10-09T05:17:09;100018.13;;;12.05;77.38
81997;BME280;71500;50.806;8.774;2023-10-09T05:19:46;100021.03;;;12.08;77.35
81997;BME280;71500;50.806;8.774;2023-10-09T05:22:34;100024.74;;;12.11;77.35
81997;BME280;71500;50.806;8.774;2023-10-09T05:25:09;100024.50;;;12.13;77.39
81997;BME280;71500;50.806;8.774;2023-10-09T05:28:06;100024.42;;;12.16;77.28
81997;BME280;71500;50.806;8.774;2023-10-09T05:30:52;100010.32;;;12.17;77.52
81997;BME280;71500;50.806;8.774;2023-10-09T05:33:37;100009.14;;;12.18;77.32
81997;BME280;71500;50.806;8.774;2023-10-09T05:36:09;100011.48;;;12.17;77.22
81997;BME280;71500;50.806;8.774;2023-10-09T05:39:02;100021.23;;;12.18;77.42
81997;BME280;71500;50.806;8.774;2023-10-09T05:41:48;100021.79;;;12.18;77.34
81997;BME280;71500;50.806;8.774;2023-10-09T05:44:30;100010.84;;;12.17;77.62
81997;BME280;71500;50.806;8.774;2023-10-09T05:47:18;100011.60;;;12.18;77.42
81997;BME280;71500;50.806;8.774;2023-10-09T05:50:03;100007.84;;;12.20;77.40
81997;BME280;71500;50.806;8.774;2023-10-09T05:52:52;100016.21;;;12.22;77.54
81997;BME280;71500;50.806;8.774;2023-10-09T05:55:39;100024.52;;;12.25;77.31
81997;BME280;71500;50.806;8.774;2023-10-09T05:58:34;100031.17;;;12.28;77.45
81997;BME280;71500;50.806;8.774;2023-10-09T06:01:19;100035.70;;;12.29;77.55
81997;BME280;71500;50.806;8.774;2023-10-09T06:04:05;100027.20;;;12.28;77.70
81997;BME280;71500;50.806;8.774;2023-10-09T06:06:46;100027.66;;;12.31;77.64
81997;BME280;71500;50.806;8.774;2023-10-09T06:09:27;100033.48;;;12.34;77.52
81997;BME280;71500;50.806;8.774;2023-10-09T06:12:20;100031.95;;;12.35;77.66
81997;BME280;71500;50.806;8.774;2023-10-09T06:15:24;100045.48;;;12.33;77.63
81997;BME280;71500;50.806;8.774;2023-10-09T06:18:24;100047.58;;;12.33;77.87
81997;BME280;71500;50.806;8.774;2023-10-09T06:21:03;100057.77;;;12.37;77.75
81997;BME280;71500;50.806;8.774;2023-10-09T06:23:40;100046.23;;;12.40;77.76
81997;BME280;71500;50.806;8.774;2023-10-09T06:26:26;100045.94;;;12.45;77.73
81997;BME280;71500;50.806;8.774;2023-10-09T06:29:03;100045.06;;;12.51;78.04
81997;BME280;71500;50.806;8.774;2023-10-09T06:31:51;100049.44;;;12.55;77.98
81997;BME280;71500;50.806;8.774;2023-10-09T06:34:29;100054.76;;;12.61;77.92
81997;BME280;71500;50.806;8.774;2023-10-09T06:37:05;100046.56;;;12.63;78.03
81997;BME280;71500;50.806;8.774;2023-10-09T06:39:47;100041.49;;;12.66;78.00
81997;BME280;71500;50.806;8.774;2023-10-09T06:42:41;100050.30;;;12.67;77.89
81997;BME280;71500;50.806;8.774;2023-10-09T06:45:22;100052.02;;;12.70;78.00
81997;BME280;71500;50.806;8.774;2023-10-09T06:48:14;100056.86;;;12.77;77.99
81997;BME280;71500;50.806;8.774;2023-10-09T06:51:10;100054.99;;;12.85;77.87
81997;BME280;71500;50.806;8.774;2023-10-09T06:53:46;100054.98;;;12.91;77.74
81997;BME280;71500;50.806;8.774;2023-10-09T06:56:35;100064.09;;;12.98;77.81
81997;BME280;71500;50.806;8.774;2023-10-09T06:59:20;100068.50;;;13.03;77.91
81997;BME280;71500;50.806;8.774;2023-10-09T07:01:55;100073.19;;;13.07;77.87
81997;BME280;71500;50.806;8.774;2023-10-09T07:04:40;100079.15;;;13.14;77.61
81997;BME280;71500;50.806;8.774;2023-10-09T07:07:17;100090.15;;;13.20;77.72
81997;BME280;71500;50.806;8.774;2023-10-09T07:09:52;100081.75;;;13.26;77.64
81997;BME280;71500;50.806;8.774;2023-10-09T07:12:37;100089.15;;;13.31;77.59
81997;BME280;71500;50.806;8.774;2023-10-09T07:15:23;100092.48;;;13.35;77.51
81997;BME280;71500;50.806;8.774;2023-10-09T07:18:08;100090.61;;;13.38;77.64
81997;BME280;71500;50.806;8.774;2023-10-09T07:20:55;100091.62;;;13.40;77.55
81997;BME280;71500;50.806;8.774;2023-10-09T07:23:41;100086.99;;;13.42;77.51
81997;BME280;71500;50.806;8.774;2023-10-09T07:26:19;100089.35;;;13.45;77.43
81997;BME280;71500;50.806;8.774;2023-10-09T07:28:54;100091.23;;;13.48;77.42
81997;BME280;71500;50.806;8.774;2023-10-09T07:31:46;100083.50;;;13.50;77.21
81997;BME280;71500;50.806;8.774;2023-10-09T07:34:17;100079.77;;;13.54;77.30
81997;BME280;71500;50.806;8.774;2023-10-09T07:37:02;100081.85;;;13.60;77.23
81997;BME280;71500;50.806;8.774;2023-10-09T07:39:35;100098.17;;;13.63;77.07
81997;BME280;71500;50.806;8.774;2023-10-09T07:42:08;100118.27;;;13.67;77.22
81997;BME280;71500;50.806;8.774;2023-10-09T07:44:59;100118.94;;;13.64;77.25
81997;BME280;71500;50.806;8.774;2023-10-09T07:47:46;100117.72;;;13.64;77.23
81997;BME280;71500;50.806;8.774;2023-10-09T07:50:36;100116.77;;;13.68;77.32
81997;BME280;71500;50.806;8.774;2023-10-09T07:53:19;100120.91;;;13.77;77.26
81997;BME280;71500;50.806;8.774;2023-10-09T07:55:57;100118.45;;;13.85;77.21
81997;BME280;71500;50.806;8.774;2023-10-09T07:58:30;100120.24;;;13.95;77.09
81997;BME280;71500;50.806;8.774;2023-10-09T08:01:03;100128.11;;;14.01;76.99
81997;BME280;71500;50.806;8.774;2023-10-09T08:03:47;100125.27;;;14.09;76.92
81997;BME280;71500;50.806;8.774;2023-10-09T08:06:28;100117.13;;;14.13;76.93
81997;BME280;71500;50.806;8.774;2023-10-09T08:09:10;100115.33;;;14.19;76.97
81997;BME280;71500;50.806;8.774;2023-10-09T08:11:56;100116.69;;;14.25;76.99
81997;BME280;71500;50.806;8.774;2023-10-09T08:14:42;100127.70;;;14.29;76.92
81997;BME280;71500;50.806;8.774;2023-10-09T08:17:16;100114.12;;;14.31;76.86
81997;BME280;71500;50.806;8.774;2023-10-09T08:19:52;100111.30;;;14.32;77.04
81997;BME280;71500;50.806;8.774;2023-10-09T08:22:27;100109.73;;;14.33;76.99
81997;BME280;71500;50.806;8.774;2023-10-09T08:25:13;100104.35;;;14.37;76.85
81997;BME280;71500;50.806;8.774;2023-10-09T08:27:59;100099.58;;;14.39;76.92
81997;BME280;71500;50.806;8.774;2023-10-09T08:30:45;100108.31;;;14.42;76.73
81997;BME280;71500;50.806;8.774;2023-10-09T08:33:34;100089.75;;;14.46;76.96
81997;BME280;71500;50.806;8.774;2023-10-09T08:36:16;100083.34;;;14.49;76.88
81997;BME280;71500;50.806;8.774;2023-10-09T08:38:53;100088.98;;;14.53;76.98
81997;BME280;71500;50.806;8.774;2023-10-09T08:41:28;100085.44;;;14.57;77.04
81997;BME280;71500;50.806;8.774;2023-10-09T08:43:59;100086.40;;;14.60;76.95
81997;BME280;71500;50.806;8.774;2023-10-09T08:46:35;100095.98;;;14.62;76.96
81997;BME280;71500;50.806;8.774;2023-10-09T08:49:07;100093.89;;;14.65;76.81
81997;BME280;71500;50.806;8.774;2023-10-09T08:51:41;100092.67;;;14.70;76.80
81997;BME280;71500;50.806;8.774;2023-10-09T08:54:12;100121.34;;;14.73;76.61
81997;BME280;71500;50.806;8.774;2023-10-09T08:56:46;100121.86;;;14.75;76.53
81997;BME280;71500;50.806;8.774;2023-10-09T08:59:21;100122.30;;;14.79;76.65
81997;BME280;71500;50.806;8.774;2023-10-09T09:01:53;100120.07;;;14.84;76.73
81997;BME280;71500;50.806;8.774;2023-10-09T09:04:39;100124.70;;;14.89;76.72
81997;BME280;71500;50.806;8.774;2023-10-09T09:07:26;100129.52;;;14.96;76.84
81997;BME280;71500;50.806;8.774;2023-10-09T09:10:00;100118.17;;;14.95;76.69
81997;BME280;71500;50.806;8.774;2023-10-09T09:12:34;100102.60;;;14.97;76.64
81997;BME280;71500;50.806;8.774;2023-10-09T09:15:15;100081.45;;;14.97;76.59
81997;BME280;71500;50.806;8.774;2023-10-09T09:17:51;100086.46;;;14.99;76.53
81997;BME280;71500;50.806;8.774;2023-10-09T09:20:26;100081.83;;;15.02;76.45
81997;BME280;71500;50.806;8.774;2023-10-09T09:23:02;100067.80;;;15.05;76.59
81997;BME280;71500;50.806;8.774;2023-10-09T09:25:43;100069.44;;;15.08;76.49
81997;BME280;71500;50.806;8.774;2023-10-09T09:28:16;100073.73;;;15.10;76.44
81997;BME280;71500;50.806;8.774;2023-10-09T09:30:54;100086.14;;;15.09;76.55
81997;BME280;71500;50.806;8.774;2023-10-09T09:33:43;100091.50;;;15.07;76.55
81997;BME280;71500;50.806;8.774;2023-10-09T09:36:15;100090.69;;;15.07;76.53
81997;BME280;71500;50.806;8.774;2023-10-09T09:38:47;100074.57;;;15.07;76.64
81997;BME280;71500;50.806;8.774;2023-10-09T09:41:19;100093.14;;;15.07;76.72
81997;BME280;71500;50.806;8.774;2023-10-09T09:43:56;100127.86;;;15.10;76.61
81997;BME280;71500;50.806;8.774;2023-10-09T09:46:33;100148.59;;;15.12;76.48
81997;BME280;71500;50.806;8.774;2023-10-09T09:49:06;100141.30;;;15.15;76.51
81997;BME280;71500;50.806;8.774;2023-10-09T09:51:47;100139.53;;;15.18;76.59
81997;BME280;71500;50.806;8.774;2023-10-09T09:54:18;100152.59;;;15.20;76.46
81997;BME280;71500;50.806;8.774;2023-10-09T09:56:57;100160.11;;;15.22;76.25
81997;BME280;71500;50.806;8.774;2023-10-09T09:59:32;100153.79;;;15.24;76.26
81997;BME280;71500;50.806;8.774;2023-10-09T10:02:06;100139.69;;;15.25;76.24
81997;BME280;71500;50.806;8.774;2023-10-09T10:04:40;100145.80;;;15.28;76.29
81997;BME280;71500;50.806;8.774;2023-10-09T10:07:16;100141.27;;;15.32;76.15
81997;BME280;71500;50.806;8.774;2023-10-09T10:09:51;100140.62;;;15.35;76.25
81997;BME280;71500;50.806;8.774;2023-10-09T10:18:58;100056.20;;;15.49;76.01
81997;BME280;71500;50.806;8.774;2023-10-09T10:21:52;100025.38;;;15.52;76.14
81997;BME280;71500;50.806;8.774;2023-10-09T10:24:43;100012.16;;;15.54;76.12
81997;BME280;71500;50.806;8.774;2023-10-09T10:27:26;100012.88;;;15.57;76.03
81997;BME280;71500;50.806;8.774;2023-10-09T10:33:03;99992.70;;;15.64;76.18
81997;BME280;71500;50.806;8.774;2023-10-09T10:35:45;99983.48;;;15.65;76.08
81997;BME280;71500;50.806;8.774;2023-10-09T10:38:36;99967.58;;;15.65;76.17
81997;BME280;71500;50.806;8.774;2023-10-09T10:41:16;99964.66;;;15.69;76.02
81997;BME280;71500;50.806;8.774;2023-10-09T10:43:48;99971.77;;;15.77;76.01
81997;BME280;71500;50.806;8.774;2023-10-09T10:46:29;99972.35;;;15.80;75.83
81997;BME280;71500;50.806;8.774;2023-10-09T10:49:10;99975.75;;;15.87;75.85
81997;BME280;71500;50.806;8.774;2023-10-09T10:51:51;99973.01;;;15.94;75.80
81997;BME280;71500;50.806;8.774;2023-10-09T10:54:32;99961.83;;;15.99;75.80
81997;BME280;71500;50.806;8.774;2023-10-09T10:57:37;99966.76;;;16.06;75.74
81997;BME280;71500;50.806;8.774;2023-10-09T11:00:24;99974.70;;;16.17;75.63
81997;BME280;71500;50.806;8.774;2023-10-09T11:03:09;99969.02;;;16.25;75.55
81997;BME280;71500;50.806;8.774;2023-10-09T11:05:50;99960.39;;;16.33;75.34
81997;BME280;71500;50.806;8.774;2023-10-09T11:08:25;99969.11;;;16.43;75.14
81997;BME280;71500;50.806;8.774;2023-10-09T11:11:14;99968.30;;;16.51;75.05
81997;BME280;71500;50.806;8.774;2023-10-09T11:13:48;99974.67;;;16.63;74.66
81997;BME280;71500;50.806;8.774;2023-10-09T11:16:28;99972.25;;;16.73;74.60
81997;BME280;71500;50.806;8.774;2023-10-09T11:19:18;99971.20;;;16.86;74.24
81997;BME280;71500;50.806;8.774;2023-10-09T11:22:03;99972.09;;;16.94;74.16
81997;BME280;71500;50.806;8.774;2023-10-09T11:24:53;99983.55;;;17.02;73.87
81997;BME280;71500;50.806;8.774;2023-10-09T11:27:48;99986.16;;;17.07;73.88
81997;BME280;71500;50.806;8.774;2023-10-09T11:30:32;99991.11;;;17.15;73.69
81997;BME280;71500;50.806;8.774;2023-10-09T11:33:08;99983.40;;;17.18;73.61
81997;BME280;71500;50.806;8.774;2023-10-09T11:35:56;99983.68;;;17.25;73.38
81997;BME280;71500;50.806;8.774;2023-10-09T11:38:37;99993.31;;;17.31;73.22
81997;BME280;71500;50.806;8.774;2023-10-09T11:41:19;99990.81;;;17.34;73.02
81997;BME280;71500;50.806;8.774;2023-10-09T11:43:53;99990.20;;;17.37;73.03
81997;BME280;71500;50.806;8.774;2023-10-09T11:46:27;99989.73;;;17.44;72.91
81997;BME280;71500;50.806;8.774;2023-10-09T11:49:10;99994.66;;;17.50;72.73
81997;BME280;71500;50.806;8.774;2023-10-09T11:52:08;99995.95;;;17.56;72.65
81997;BME280;71500;50.806;8.774;2023-10-09T11:54:53;99998.07;;;17.63;72.47
81997;BME280;71500;50.806;8.774;2023-10-09T11:57:27;99996.49;;;17.67;72.29
81997;BME280;71500;50.806;8.774;2023-10-09T12:00:04;99995.16;;;17.71;72.47
81997;BME280;71500;50.806;8.774;2023-10-09T12:02:58;99996.52;;;17.76;72.29
81997;BME280;71500;50.806;8.774;2023-10-09T12:05:36;99992.71;;;17.78;72.18
81997;BME280;71500;50.806;8.774;2023-10-09T12:08:08;99989.42;;;17.80;72.17
81997;BME280;71500;50.806;8.774;2023-10-09T12:10:39;99991.49;;;17.82;72.07
81997;BME280;71500;50.806;8.774;2023-10-09T12:13:11;99991.29;;;17.84;72.05
81997;BME280;71500;50.806;8.774;2023-10-09T12:15:46;99990.26;;;17.88;72.08
81997;BME280;71500;50.806;8.774;2023-10-09T12:18:17;99994.29;;;17.95;71.96
81997;BME280;71500;50.806;8.774;2023-10-09T12:20:49;99997.17;;;18.01;71.83
81997;BME280;71500;50.806;8.774;2023-10-09T12:23:23;99998.67;;;18.07;71.75
81997;BME280;71500;50.806;8.774;2023-10-09T12:25:58;100000.13;;;18.11;71.58
81997;BME280;71500;50.806;8.774;2023-10-09T12:28:31;100002.64;;;18.16;71.64
81997;BME280;71500;50.806;8.774;2023-10-09T12:31:03;100005.05;;;18.20;71.59
81997;BME280;71500;50.806;8.774;2023-10-09T12:33:35;100007.44;;;18.25;71.56
81997;BME280;71500;50.806;8.774;2023-10-09T12:36:14;100010.34;;;18.25;71.49
81997;BME280;71500;50.806;8.774;2023-10-09T12:38:51;100009.98;;;18.26;71.47
81997;BME280;71500;50.806;8.774;2023-10-09T12:41:24;100019.14;;;18.28;71.46
81997;BME280;71500;50.806;8.774;2023-10-09T12:43:57;100012.41;;;18.29;71.38
81997;BME280;71500;50.806;8.774;2023-10-09T12:46:29;100015.36;;;18.29;71.39
81997;BME280;71500;50.806;8.774;2023-10-09T12:49:08;100017.36;;;18.32;71.20
81997;BME280;71500;50.806;8.774;2023-10-09T12:51:40;100020.41;;;18.38;71.13
81997;BME280;71500;50.806;8.774;2023-10-09T12:54:12;100017.34;;;18.43;71.10
81997;BME280;71500;50.806;8.774;2023-10-09T12:56:45;100018.69;;;18.49;70.99
81997;BME280;71500;50.806;8.774;2023-10-09T12:59:19;100014.08;;;18.51;70.85
81997;BME280;71500;50.806;8.774;2023-10-09T13:01:52;100013.17;;;18.54;70.81
81997;BME280;71500;50.806;8.774;2023-10-09T13:04:28;100016.77;;;18.57;70.81
81997;BME280;71500;50.806;8.774;2023-10-09T13:07:03;100019.98;;;18.59;70.78
81997;BME280;71500;50.806;8.774;2023-10-09T13:09:36;100011.77;;;18.58;70.82
81997;BME280;71500;50.806;8.774;2023-10-09T13:12:13;100002.38;;;18.56;70.76
81997;BME280;71500;50.806;8.774;2023-10-09T13:14:49;99990.20;;;18.54;70.76
81997;BME280;71500;50.806;8.774;2023-10-09T13:17:21;100001.16;;;18.55;70.82
81997;BME280;71500;50.806;8.774;2023-10-09T13:19:57;100009.63;;;18.55;70.70
81997;BME280;71500;50.806;8.774;2023-10-09T13:22:29;100016.92;;;18.57;70.79
81997;BME280;71500;50.806;8.774;2023-10-09T13:25:01;100016.57;;;18.60;70.58
81997;BME280;71500;50.806;8.774;2023-10-09T13:27:35;100009.86;;;18.64;70.67
81997;BME280;71500;50.806;8.774;2023-10-09T13:30:11;100001.69;;;18.61;70.70
81997;BME280;71500;50.806;8.774;2023-10-09T13:32:52;100000.20;;;18.62;70.52
81997;BME280;71500;50.806;8.774;2023-10-09T13:35:24;100004.30;;;18.59;70.79
81997;BME280;71500;50.806;8.774;2023-10-09T13:38:07;99999.58;;;18.53;70.76
81997;BME280;71500;50.806;8.774;2023-10-09T13:40:40;100006.08;;;18.52;70.82
81997;BME280;71500;50.806;8.774;2023-10-09T13:43:12;100005.11;;;18.52;71.02
81997;BME280;71500;50.806;8.774;2023-10-09T13:45:47;100003.73;;;18.52;70.93
81997;BME280;71500;50.806;8.774;2023-10-09T13:48:21;100005.75;;;18.56;71.07
81997;BME280;71500;50.806;8.774;2023-10-09T13:50:58;100003.63;;;18.59;70.90
81997;BME280;71500;50.806;8.774;2023-10-09T13:53:32;100006.43;;;18.62;70.94
81997;BME280;71500;50.806;8.774;2023-10-09T13:56:09;100000.29;;;18.63;70.98
81997;BME280;71500;50.806;8.774;2023-10-09T13:58:45;100001.98;;;18.62;70.88
81997;BME280;71500;50.806;8.774;2023-10-09T14:01:17;100000.57;;;18.62;70.88
81997;BME280;71500;50.806;8.774;2023-10-09T14:03:58;100010.08;;;18.67;70.85